Main page
METAR-TAF:

METAR-TAF

Airports :

Treviso, Italy

Treviso Airport

latitude: 45-39N, longitude: 012-11E, elevation: 18 m

Current weather observation

The report was made 20 minutes ago, at 20:20 UTC
Wind 3 kt from the North/Northeast
Temperature 24°C
Humidity 61%
Pressure
Visibility 10 km or more
no clouds below 1500 m and no cumulonimbus

METAR: LIPH 272020Z 03003KT CAVOK 24/16 Q////

Time: 22:40 (20:40 UTC)

Forecast

The report was made 3 hours and 40 minutes ago, at 17:00 UTC
Forecast valid from 27 at 18 UTC to 28 at 18 UTC
Wind 5 kt from variable directions
Visibility 10 km or more
Scattered clouds at a height of 3000 ft
Temporary
from 28 at 06 UTC to 28 at 12 UTC
rain
Temporary
from 28 at 12 UTC to 28 at 18 UTC
thunderstorm, rain

TAF: LIPH 271700Z 2718/2818 VRB05KT 9999 SCT030 TEMPO 2806/2812 RA TEMPO 2812/2818 TSRA

Weather observations and forecasts of more than 4000 airports (METAR and TAF reports).

The available stations are represented by yellow and red dots on the map.

Hover mouse over dot to see the name of the station.

Then click to see weather observations and forecasts.

To change the map : click on the green buttons with a black cross to zoom in, on the green button with a dash to zoom out, or on the green arrows for adjacent maps.


METAR-TAF: